createdAt,value
2023-03-26T00:02:23.618Z,8.19
2023-03-26T00:12:23.673Z,7.83
2023-03-26T00:22:23.895Z,7.61
2023-03-26T00:32:24.104Z,8.25
2023-03-26T00:42:24.324Z,8.05
2023-03-26T00:52:24.522Z,7.79
2023-03-26T01:02:24.822Z,7.64
2023-03-26T01:12:24.809Z,7.64
2023-03-26T01:22:25.005Z,7.77
2023-03-26T01:32:25.276Z,7.83
2023-03-26T01:42:25.472Z,8.01
2023-03-26T01:52:25.672Z,8.05
2023-03-26T02:02:26.035Z,8.11
2023-03-26T02:12:26.123Z,8.02
2023-03-26T02:22:26.329Z,7.97
2023-03-26T02:32:27.960Z,7.93
2023-03-26T02:42:26.781Z,7.95
2023-03-26T02:52:26.940Z,7.64
2023-03-26T03:02:27.206Z,7.49
2023-03-26T03:12:27.388Z,7.17
2023-03-26T03:22:27.586Z,7.13
2023-03-26T03:32:27.920Z,7.24
2023-03-26T03:42:27.920Z,7.27
2023-03-26T03:52:28.140Z,7.35
2023-03-26T04:02:28.395Z,7.30
2023-03-26T04:12:28.592Z,7.31
2023-03-26T04:22:28.789Z,7.42
2023-03-26T04:32:29.002Z,7.45
2023-03-26T04:42:29.180Z,7.31
2023-03-26T04:52:29.379Z,7.30
2023-03-26T05:02:29.616Z,7.40
2023-03-26T05:12:29.817Z,7.50
2023-03-26T05:22:29.959Z,7.63
2023-03-26T05:32:30.271Z,7.82
2023-03-26T05:42:30.272Z,7.71
2023-03-26T05:52:30.479Z,7.52
2023-03-26T06:02:30.751Z,7.64
2023-03-26T06:12:30.885Z,7.79
2023-03-26T06:22:31.123Z,7.72
2023-03-26T06:32:31.358Z,7.83
2023-03-26T06:43:06.558Z,7.98
2023-03-26T06:52:32.847Z,8.07
2023-03-26T07:02:32.062Z,8.18
2023-03-26T07:12:32.245Z,8.26
2023-03-26T07:22:32.490Z,8.43
2023-03-26T07:32:32.770Z,8.61
2023-03-26T07:42:32.954Z,8.52
2023-03-26T07:52:33.152Z,8.58
2023-03-26T08:02:33.425Z,8.44
2023-03-26T08:12:33.678Z,8.18
2023-03-26T08:22:33.865Z,7.82
2023-03-26T08:32:34.076Z,7.64
2023-03-26T08:42:34.284Z,7.57
2023-03-26T08:52:34.467Z,7.58
2023-03-26T09:02:34.710Z,7.46
2023-03-26T09:12:34.903Z,7.61
2023-03-26T09:22:35.105Z,8.05
2023-03-26T09:32:35.305Z,8.47
2023-03-26T09:42:35.509Z,8.76
2023-03-26T09:52:35.712Z,8.47
2023-03-26T10:02:45.808Z,8.29
2023-03-26T10:12:37.159Z,8.84
2023-03-26T10:22:36.357Z,8.96
2023-03-26T10:32:36.620Z,8.94
2023-03-26T10:42:36.801Z,8.96
2023-03-26T10:52:36.998Z,9.28
2023-03-26T11:02:37.289Z,9.54
2023-03-26T11:12:37.484Z,9.91
2023-03-26T11:22:37.696Z,10.09
2023-03-26T11:32:37.988Z,10.33
2023-03-26T11:42:38.133Z,10.48
2023-03-26T11:52:38.365Z,10.59
2023-03-26T12:02:38.746Z,10.56
2023-03-26T12:12:38.799Z,11.04
2023-03-26T12:22:39.280Z,11.09
2023-03-26T12:32:46.211Z,11.11
2023-03-26T12:44:54.974Z,11.52
2023-03-26T12:52:40.518Z,11.51
2023-03-26T13:02:39.847Z,11.58
2023-03-26T13:12:40.013Z,11.72
2023-03-26T13:22:40.150Z,11.85
2023-03-26T13:32:40.217Z,11.94
2023-03-26T13:42:40.423Z,12.05
2023-03-26T13:52:40.854Z,12.09
2023-03-26T14:02:40.983Z,12.21
2023-03-26T14:12:40.817Z,12.24
2023-03-26T14:22:41.028Z,12.45
2023-03-26T14:32:41.273Z,12.96
2023-03-26T14:42:43.490Z,13.95
2023-03-26T14:52:41.635Z,12.95
2023-03-26T15:02:42.121Z,12.74
2023-03-26T15:12:41.978Z,12.45
2023-03-26T15:22:42.187Z,12.27
2023-03-26T15:32:42.411Z,12.16
2023-03-26T15:42:42.589Z,11.44
2023-03-26T15:52:43.054Z,9.24
2023-03-26T16:02:43.919Z,9.65
2023-03-26T16:12:43.101Z,10.12
2023-03-26T16:22:43.783Z,10.27
2023-03-26T16:32:43.576Z,9.72
2023-03-26T16:42:43.862Z,9.81
2023-03-26T16:52:43.931Z,9.94
2023-03-26T17:02:44.258Z,10.11
2023-03-26T17:12:45.092Z,10.14
2023-03-26T17:22:44.581Z,9.60
2023-03-26T17:32:44.901Z,7.49
2023-03-26T17:42:46.033Z,6.77
2023-03-26T17:52:45.138Z,6.69
2023-03-26T18:02:45.459Z,6.85
2023-03-26T18:12:46.656Z,7.21
2023-03-26T18:22:45.499Z,7.13
2023-03-26T18:32:45.725Z,7.16
2023-03-26T18:42:45.906Z,7.13
2023-03-26T18:52:46.136Z,7.53
2023-03-26T19:02:48.417Z,7.60
2023-03-26T19:12:48.467Z,8.04
2023-03-26T19:22:46.711Z,7.85
2023-03-26T19:32:46.948Z,7.90
2023-03-26T19:42:47.152Z,7.92
2023-03-26T19:52:47.341Z,7.05
2023-03-26T20:02:47.398Z,6.69
2023-03-26T20:12:48.354Z,6.64
2023-03-26T20:22:47.716Z,6.61
2023-03-26T20:32:49.534Z,6.37
2023-03-26T20:42:49.066Z,6.48
2023-03-26T20:52:47.949Z,6.61
2023-03-26T21:02:48.256Z,6.66
2023-03-26T21:12:48.240Z,6.89
2023-03-26T21:22:48.431Z,6.89
2023-03-26T21:32:48.774Z,6.67
2023-03-26T21:42:48.755Z,6.55
2023-03-26T21:52:48.951Z,6.64
2023-03-26T22:02:49.169Z,6.64
2023-03-26T22:12:49.348Z,6.66
2023-03-26T22:22:49.532Z,6.52
2023-03-26T22:32:49.758Z,6.37
2023-03-26T22:42:49.928Z,6.25
2023-03-26T22:52:50.328Z,6.11
2023-03-26T23:02:50.367Z,6.12
2023-03-26T23:12:50.525Z,6.03
2023-03-26T23:22:50.728Z,5.96
2023-03-26T23:32:50.940Z,5.82
2023-03-26T23:42:51.106Z,5.79
2023-03-26T23:52:51.311Z,5.78
